createdAt,value
2023-05-21T00:00:42.623Z,101261.97
2023-05-21T00:01:34.236Z,101255.84
2023-05-21T00:02:25.661Z,101261.91
2023-05-21T00:03:17.738Z,101257.59
2023-05-21T00:04:09.756Z,101260.13
2023-05-21T00:05:01.231Z,101257.53
2023-05-21T00:05:53.407Z,101260.13
2023-05-21T00:06:44.917Z,101261.00
2023-05-21T00:07:38.788Z,101261.00
2023-05-21T00:08:30.385Z,101259.22
2023-05-21T00:09:21.792Z,101256.59
2023-05-21T00:10:15.778Z,101258.28
2023-05-21T00:11:07.311Z,101253.09
2023-05-21T00:12:00.737Z,101249.63
2023-05-21T00:12:52.445Z,101254.78
2023-05-21T00:13:44.136Z,101252.16
2023-05-21T00:14:36.151Z,101246.97
2023-05-21T00:15:27.842Z,101246.94
2023-05-21T00:16:19.337Z,101247.78
2023-05-21T00:17:10.818Z,101249.47
2023-05-21T00:18:02.581Z,101245.97
2023-05-21T00:18:58.068Z,101239.84
2023-05-21T00:19:50.533Z,101245.06
2023-05-21T00:20:42.190Z,101247.66
2023-05-21T00:21:33.976Z,101242.44
2023-05-21T00:22:25.518Z,101243.28
2023-05-21T00:23:18.568Z,101238.03
2023-05-21T00:24:10.045Z,101241.47
2023-05-21T00:25:02.122Z,101242.38
2023-05-21T00:25:53.724Z,101241.47
2023-05-21T00:26:45.232Z,101238.88
2023-05-21T00:27:36.823Z,101237.09
2023-05-21T00:28:28.341Z,101234.47
2023-05-21T00:29:19.865Z,101230.97
2023-05-21T00:30:11.494Z,101234.41
2023-05-21T00:31:05.967Z,101233.56
2023-05-21T00:31:57.696Z,101236.19
2023-05-21T00:32:49.429Z,101232.72
2023-05-21T00:33:40.901Z,101228.34
2023-05-21T00:34:32.482Z,101231.88
2023-05-21T00:35:26.676Z,101234.47
2023-05-21T00:36:18.126Z,101230.09
2023-05-21T00:37:10.024Z,101224.03
2023-05-21T00:38:04.251Z,101221.44
2023-05-21T00:38:55.680Z,101220.59
2023-05-21T00:39:47.454Z,101228.44
2023-05-21T00:40:42.607Z,101225.81
2023-05-21T00:41:35.219Z,101221.44
2023-05-21T00:42:27.869Z,101226.72
2023-05-21T00:43:19.463Z,101231.09
2023-05-21T00:44:14.448Z,101225.03
2023-05-21T00:45:07.985Z,101226.00
2023-05-21T00:45:59.708Z,101222.50
2023-05-21T00:46:53.641Z,101229.47
2023-05-21T00:47:48.306Z,101226.00
2023-05-21T00:48:40.391Z,101218.13
2023-05-21T00:49:32.191Z,101220.84
2023-05-21T00:50:24.252Z,101220.84
2023-05-21T00:51:18.438Z,101214.88
2023-05-21T00:52:10.300Z,101219.19
2023-05-21T00:53:02.113Z,101220.09
2023-05-21T00:53:54.351Z,101214.00
2023-05-21T00:54:50.924Z,101214.81
2023-05-21T00:55:42.677Z,101213.03
2023-05-21T00:56:34.340Z,101213.81
2023-05-21T00:57:27.342Z,101214.66
2023-05-21T00:58:21.461Z,101211.19
2023-05-21T00:59:15.820Z,101206.81
2023-05-21T01:00:10.615Z,101208.53
2023-05-21T01:01:09.049Z,101216.31
2023-05-21T01:02:04.162Z,101214.53
2023-05-21T01:02:56.307Z,101209.31
2023-05-21T01:03:49.003Z,101216.31
2023-05-21T01:04:40.845Z,101212.97
2023-05-21T01:05:33.120Z,101212.91
2023-05-21T01:06:25.584Z,101212.91
2023-05-21T01:07:18.640Z,101207.63
2023-05-21T01:08:10.339Z,101212.84
2023-05-21T01:09:05.240Z,101211.16
2023-05-21T01:09:57.037Z,101206.84
2023-05-21T01:10:50.150Z,101211.22
2023-05-21T01:11:47.813Z,101206.00
2023-05-21T01:12:43.917Z,101204.28
2023-05-21T01:13:40.897Z,101204.25
2023-05-21T01:14:34.697Z,101210.34
2023-05-21T01:15:27.680Z,101210.34
2023-05-21T01:16:19.720Z,101209.47
2023-05-21T01:17:13.537Z,101204.28
2023-05-21T01:18:06.233Z,101207.75
2023-05-21T01:18:59.544Z,101217.34
2023-05-21T01:19:53.252Z,101213.88
2023-05-21T01:20:48.333Z,101216.50
2023-05-21T01:21:45.668Z,101211.28
2023-05-21T01:22:49.112Z,101200.84
2023-05-21T01:23:40.942Z,101212.19
2023-05-21T01:24:32.928Z,101205.28
2023-05-21T01:25:25.323Z,101206.19
2023-05-21T01:26:16.846Z,101207.06
2023-05-21T01:27:10.407Z,101204.50
2023-05-21T01:28:02.138Z,101203.59
2023-05-21T01:28:54.011Z,101202.72
2023-05-21T01:29:48.315Z,101206.25
2023-05-21T01:30:42.514Z,101203.66
2023-05-21T01:31:59.419Z,101206.25
2023-05-21T01:32:57.653Z,101204.50
2023-05-21T01:33:52.761Z,101201.88
2023-05-21T01:35:09.412Z,101207.09
2023-05-21T01:36:26.410Z,101207.09
2023-05-21T01:37:27.056Z,101200.97
2023-05-21T01:38:24.213Z,101202.66
2023-05-21T01:39:38.694Z,101193.03
2023-05-21T01:40:38.172Z,101195.63
2023-05-21T01:41:36.842Z,101196.47
2023-05-21T01:42:33.455Z,101203.47
2023-05-21T01:43:29.139Z,101196.47
2023-05-21T01:44:25.304Z,101191.25
2023-05-21T01:45:18.975Z,101190.41
2023-05-21T01:46:15.161Z,101194.72
2023-05-21T01:47:07.304Z,101189.50
2023-05-21T01:47:59.514Z,101188.59
2023-05-21T01:48:55.041Z,101192.88
2023-05-21T01:49:47.360Z,101194.66
2023-05-21T01:50:41.743Z,101197.25
2023-05-21T01:51:34.197Z,101196.34
2023-05-21T01:52:25.954Z,101194.53
2023-05-21T01:53:17.621Z,101191.00
2023-05-21T01:54:09.696Z,101193.53
2023-05-21T01:55:01.308Z,101189.22
2023-05-21T01:55:55.909Z,101192.69
2023-05-21T01:56:47.869Z,101191.84
2023-05-21T01:57:41.507Z,101193.59
2023-05-21T01:58:35.677Z,101192.75
2023-05-21T01:59:27.878Z,101203.97
2023-05-21T02:00:23.944Z,101196.16
2023-05-21T02:01:15.552Z,101196.06
2023-05-21T02:02:07.426Z,101196.91
2023-05-21T02:02:59.703Z,101193.41
2023-05-21T02:03:51.456Z,101189.09
2023-05-21T02:04:44.070Z,101195.22
2023-05-21T02:05:35.874Z,101195.38
2023-05-21T02:06:27.602Z,101191.97
2023-05-21T02:07:19.898Z,101192.81
2023-05-21T02:08:15.651Z,101194.50
2023-05-21T02:09:09.816Z,101192.69
2023-05-21T02:10:01.495Z,101194.31
2023-05-21T02:10:55.612Z,101189.94
2023-05-21T02:11:47.118Z,101195.94
2023-05-21T02:12:38.666Z,101192.47
2023-05-21T02:13:32.485Z,101202.00
2023-05-21T02:14:25.343Z,101195.91
2023-05-21T02:15:18.285Z,101196.78
2023-05-21T02:16:15.041Z,101195.03
2023-05-21T02:17:08.139Z,101190.63
2023-05-21T02:17:59.794Z,101195.84
2023-05-21T02:18:52.228Z,101191.47
2023-05-21T02:19:47.621Z,101187.06
2023-05-21T02:20:39.155Z,101194.91
2023-05-21T02:21:31.094Z,101189.66
2023-05-21T02:22:22.803Z,101199.28
2023-05-21T02:23:17.336Z,101191.47
2023-05-21T02:24:08.903Z,101194.09
2023-05-21T02:25:00.459Z,101197.56
2023-05-21T02:25:54.317Z,101194.09
2023-05-21T02:26:46.218Z,101200.09
2023-05-21T02:27:40.373Z,101201.91
2023-05-21T02:28:34.476Z,101201.06
2023-05-21T02:29:26.144Z,101196.69
2023-05-21T02:30:17.701Z,101201.06
2023-05-21T02:31:09.217Z,101197.59
2023-05-21T02:32:00.765Z,101197.59
2023-05-21T02:32:54.800Z,101197.56
2023-05-21T02:33:46.600Z,101192.34
2023-05-21T02:34:42.495Z,101193.19
2023-05-21T02:35:34.230Z,101196.63
2023-05-21T02:36:26.491Z,101191.38
2023-05-21T02:37:18.786Z,101193.19
2023-05-21T02:38:10.478Z,101186.22
2023-05-21T02:39:04.384Z,101186.25
2023-05-21T02:39:56.778Z,101190.69
2023-05-21T02:40:51.060Z,101189.88
2023-05-21T02:41:42.518Z,101189.84
2023-05-21T02:42:36.700Z,101190.72
2023-05-21T02:43:28.327Z,101183.81
2023-05-21T02:44:20.808Z,101184.63
2023-05-21T02:45:12.703Z,101182.03
2023-05-21T02:46:07.657Z,101194.22
2023-05-21T02:47:00.168Z,101186.34
2023-05-21T02:47:52.101Z,101182.88
2023-05-21T02:48:44.440Z,101185.44
2023-05-21T02:49:36.096Z,101181.13
2023-05-21T02:50:27.708Z,101188.97
2023-05-21T02:51:22.492Z,101182.94
2023-05-21T02:52:14.882Z,101188.19
2023-05-21T02:53:06.465Z,101176.28
2023-05-21T02:53:58.983Z,101182.34
2023-05-21T02:54:53.128Z,101177.97
2023-05-21T02:55:44.872Z,101179.72
2023-05-21T02:56:36.642Z,101176.28
2023-05-21T02:57:28.138Z,101175.34
2023-05-21T02:58:25.670Z,101177.06
2023-05-21T02:59:17.378Z,101183.09
2023-05-21T03:00:10.089Z,101183.03
2023-05-21T03:01:03.577Z,101181.34
2023-05-21T03:01:55.275Z,101182.25
2023-05-21T03:02:46.919Z,101182.25
2023-05-21T03:03:38.567Z,101177.91
2023-05-21T03:04:30.340Z,101177.97
2023-05-21T03:05:22.247Z,101179.72
2023-05-21T03:06:14.173Z,101172.72
2023-05-21T03:07:06.192Z,101171.84
2023-05-21T03:07:57.778Z,101174.38
2023-05-21T03:08:49.818Z,101173.50
2023-05-21T03:09:44.746Z,101175.22
2023-05-21T03:10:36.294Z,101166.47
2023-05-21T03:11:27.777Z,101170.00
2023-05-21T03:12:19.289Z,101161.31
2023-05-21T03:13:10.989Z,101168.25
2023-05-21T03:14:02.774Z,101162.16
2023-05-21T03:14:56.613Z,101162.13
2023-05-21T03:15:51.454Z,101169.09
2023-05-21T03:16:43.679Z,101160.34
2023-05-21T03:17:38.764Z,101168.16
2023-05-21T03:18:30.340Z,101162.94
2023-05-21T03:19:21.953Z,101163.81
2023-05-21T03:20:16.315Z,101162.09
2023-05-21T03:21:08.218Z,101157.81
2023-05-21T03:22:00.161Z,101161.34
2023-05-21T03:22:52.796Z,101159.56
2023-05-21T03:23:44.569Z,101156.97
2023-05-21T03:24:39.327Z,101163.09
2023-05-21T03:25:31.669Z,101159.56
2023-05-21T03:26:23.878Z,101156.94
2023-05-21T03:27:15.481Z,101164.78
2023-05-21T03:28:10.179Z,101160.41
2023-05-21T03:29:11.080Z,101157.88
2023-05-21T03:30:06.544Z,101156.19
2023-05-21T03:31:06.439Z,101164.84
2023-05-21T03:32:01.600Z,101164.78
2023-05-21T03:32:54.046Z,101163.94
2023-05-21T03:33:46.058Z,101165.63
2023-05-21T03:34:44.804Z,101163.88
2023-05-21T03:35:36.581Z,101174.34
2023-05-21T03:36:28.503Z,101170.91
2023-05-21T03:37:21.299Z,101170.00
2023-05-21T03:38:12.803Z,101177.81
2023-05-21T03:39:04.776Z,101179.56
2023-05-21T03:39:58.300Z,101172.63
2023-05-21T03:40:51.807Z,101172.63
2023-05-21T03:41:43.886Z,101172.63
2023-05-21T03:42:41.563Z,101168.25
2023-05-21T03:43:33.426Z,101168.25
2023-05-21T03:44:27.854Z,101172.63
2023-05-21T03:45:25.036Z,101169.16
2023-05-21T03:46:34.837Z,101171.69
2023-05-21T03:47:35.553Z,101175.19
2023-05-21T03:48:28.817Z,101170.84
2023-05-21T03:49:20.741Z,101170.84
2023-05-21T03:50:14.689Z,101175.16
2023-05-21T03:51:06.293Z,101171.69
2023-05-21T03:51:57.845Z,101162.94
2023-05-21T03:52:50.334Z,101167.31
2023-05-21T03:53:41.817Z,101161.19
2023-05-21T03:54:33.231Z,101163.78
2023-05-21T03:55:29.373Z,101162.03
2023-05-21T03:56:21.613Z,101157.69
2023-05-21T03:57:13.226Z,101162.88
2023-05-21T03:58:05.438Z,101162.03
2023-05-21T03:58:56.885Z,101163.78
2023-05-21T03:59:48.514Z,101164.66
2023-05-21T04:00:40.558Z,101155.97
2023-05-21T04:01:34.315Z,101156.03
2023-05-21T04:02:27.448Z,101156.91
2023-05-21T04:03:19.329Z,101160.41
2023-05-21T04:04:11.267Z,101159.66
2023-05-21T04:05:03.247Z,101165.75
2023-05-21T04:05:54.716Z,101157.03
2023-05-21T04:06:48.265Z,101166.63
2023-05-21T04:07:39.792Z,101160.53
2023-05-21T04:08:32.144Z,101160.56
2023-05-21T04:09:23.713Z,101164.94
2023-05-21T04:10:17.041Z,101168.44
2023-05-21T04:11:08.507Z,101164.13
2023-05-21T04:12:00.638Z,101158.91
2023-05-21T04:12:52.587Z,101163.28
2023-05-21T04:13:48.058Z,101165.91
2023-05-21T04:14:39.579Z,101163.31
2023-05-21T04:15:31.272Z,101166.00
2023-05-21T04:16:24.581Z,101161.72
2023-05-21T04:17:19.152Z,101158.25
2023-05-21T04:18:10.893Z,101160.03
2023-05-21T04:19:02.677Z,101160.09
2023-05-21T04:19:55.110Z,101154.88
2023-05-21T04:20:46.563Z,101159.25
2023-05-21T04:21:38.039Z,101158.38
2023-05-21T04:22:30.366Z,101155.81
2023-05-21T04:23:23.820Z,101156.69
2023-05-21T04:24:16.851Z,101155.84
2023-05-21T04:25:31.245Z,101162.84
2023-05-21T04:26:25.194Z,101162.84
2023-05-21T04:27:19.188Z,101159.44
2023-05-21T04:28:10.992Z,101155.13
2023-05-21T04:29:05.402Z,101162.06
2023-05-21T04:29:57.950Z,101161.22
2023-05-21T04:30:49.916Z,101162.97
2023-05-21T04:31:41.544Z,101165.63
2023-05-21T04:32:35.103Z,101166.53
2023-05-21T04:33:27.156Z,101163.94
2023-05-21T04:34:18.839Z,101159.63
2023-05-21T04:35:10.506Z,101165.75
2023-05-21T04:36:04.758Z,101160.53
2023-05-21T04:36:58.633Z,101160.53
2023-05-21T04:37:50.457Z,101161.44
2023-05-21T04:38:42.348Z,101165.81
2023-05-21T04:39:34.723Z,101165.88
2023-05-21T04:40:26.925Z,101165.88
2023-05-21T04:41:18.949Z,101161.59
2023-05-21T04:42:11.047Z,101160.72
2023-05-21T04:43:02.814Z,101168.56
2023-05-21T04:43:57.576Z,101167.72
2023-05-21T04:44:55.475Z,101168.66
2023-05-21T04:45:47.202Z,101166.09
2023-05-21T04:46:40.969Z,101164.41
2023-05-21T04:47:35.478Z,101169.66
2023-05-21T04:48:28.735Z,101168.81
2023-05-21T04:49:21.387Z,101174.94
2023-05-21T04:50:12.959Z,101167.13
2023-05-21T04:51:06.325Z,101168.03
2023-05-21T04:51:59.051Z,101172.41
2023-05-21T04:52:50.732Z,101168.97
2023-05-21T04:53:42.683Z,101169.00
2023-05-21T04:54:34.170Z,101169.06
2023-05-21T04:55:25.920Z,101170.81
2023-05-21T04:56:20.050Z,101171.75
2023-05-21T04:57:11.728Z,101168.28
2023-05-21T04:58:03.458Z,101163.97
2023-05-21T04:58:55.331Z,101163.97
2023-05-21T04:59:47.747Z,101167.53
2023-05-21T05:00:42.308Z,101167.53
2023-05-21T05:01:35.229Z,101170.22
2023-05-21T05:02:26.948Z,101171.13
2023-05-21T05:03:18.663Z,101174.69
2023-05-21T05:04:10.514Z,101176.47
2023-05-21T05:05:03.474Z,101167.88
2023-05-21T05:05:56.244Z,101167.94
2023-05-21T05:06:47.665Z,101171.47
2023-05-21T05:07:39.923Z,101169.75
2023-05-21T05:08:31.558Z,101169.75
2023-05-21T05:09:25.103Z,101172.41
2023-05-21T05:10:19.421Z,101170.75
2023-05-21T05:11:11.099Z,101169.91
2023-05-21T05:12:02.830Z,101169.97
2023-05-21T05:12:54.358Z,101176.09
2023-05-21T05:13:46.079Z,101177.84
2023-05-21T05:14:37.734Z,101171.78
2023-05-21T05:15:29.258Z,101173.53
2023-05-21T05:16:29.458Z,101170.03
2023-05-21T05:17:21.786Z,101164.91
2023-05-21T05:18:14.567Z,101170.16
2023-05-21T05:19:06.198Z,101172.78
2023-05-21T05:19:57.735Z,101170.22
2023-05-21T05:20:49.197Z,101168.53
2023-05-21T05:21:40.702Z,101169.44
2023-05-21T05:22:34.350Z,101169.47
2023-05-21T05:23:26.226Z,101167.72
2023-05-21T05:24:17.922Z,101165.97
2023-05-21T05:25:09.849Z,101167.72
2023-05-21T05:26:01.652Z,101167.78
2023-05-21T05:26:53.282Z,101165.16
2023-05-21T05:27:44.962Z,101169.47
2023-05-21T05:28:37.339Z,101165.16
2023-05-21T05:29:28.795Z,101165.22
2023-05-21T05:30:20.846Z,101164.34
2023-05-21T05:31:12.579Z,101166.13
2023-05-21T05:32:04.457Z,101163.56
2023-05-21T05:32:56.524Z,101169.72
2023-05-21T05:33:48.903Z,101168.00
2023-05-21T05:34:42.553Z,101166.31
2023-05-21T05:35:34.610Z,101167.22
2023-05-21T05:36:27.111Z,101169.88
2023-05-21T05:37:18.557Z,101165.53
2023-05-21T05:38:13.528Z,101169.00
2023-05-21T05:39:08.886Z,101169.06
2023-05-21T05:40:00.599Z,101171.69
2023-05-21T05:40:52.522Z,101171.72
2023-05-21T05:41:46.061Z,101162.19
2023-05-21T05:42:37.582Z,101166.56
2023-05-21T05:43:35.927Z,101163.22
2023-05-21T05:44:30.410Z,101155.41
2023-05-21T05:45:24.947Z,101161.50
2023-05-21T05:46:17.098Z,101158.03
2023-05-21T05:47:13.190Z,101163.31
2023-05-21T05:48:07.631Z,101158.13
2023-05-21T05:48:59.174Z,101157.34
2023-05-21T05:49:53.157Z,101159.22
2023-05-21T05:50:45.659Z,101154.00
2023-05-21T05:51:37.510Z,101165.34
2023-05-21T05:52:31.550Z,101161.88
2023-05-21T05:53:23.195Z,101157.56
2023-05-21T05:54:15.485Z,101168.09
2023-05-21T05:55:08.911Z,101158.56
2023-05-21T05:56:01.068Z,101164.75
2023-05-21T05:56:54.588Z,101159.50
2023-05-21T05:57:46.465Z,101157.84
2023-05-21T05:58:40.029Z,101156.03
2023-05-21T05:59:35.713Z,101157.72
2023-05-21T06:00:27.652Z,101158.63
2023-05-21T06:01:20.332Z,101155.19
2023-05-21T06:02:12.922Z,101154.28
2023-05-21T06:03:05.697Z,101152.47
2023-05-21T06:03:57.805Z,101146.34
2023-05-21T06:04:49.583Z,101150.72
2023-05-21T06:05:41.239Z,101148.16
2023-05-21T06:06:34.700Z,101150.88
2023-05-21T06:07:26.579Z,101145.72
2023-05-21T06:08:18.138Z,101141.38
2023-05-21T06:09:15.781Z,101150.09
2023-05-21T06:10:10.319Z,101150.19
2023-05-21T06:11:04.016Z,101152.88
2023-05-21T06:11:56.066Z,101158.03
2023-05-21T06:12:47.893Z,101154.56
2023-05-21T06:13:40.094Z,101153.81
2023-05-21T06:14:31.679Z,101154.69
2023-05-21T06:15:23.134Z,101153.00
2023-05-21T06:16:15.960Z,101146.06
2023-05-21T06:17:07.726Z,101151.28
2023-05-21T06:17:59.280Z,101157.44
2023-05-21T06:18:50.955Z,101148.72
2023-05-21T06:19:42.853Z,101151.38
2023-05-21T06:20:36.670Z,101147.97
2023-05-21T06:21:31.194Z,101154.16
2023-05-21T06:22:24.921Z,101153.31
2023-05-21T06:23:19.253Z,101150.75
2023-05-21T06:24:11.293Z,101153.38
2023-05-21T06:25:03.172Z,101154.25
2023-05-21T06:25:56.908Z,101149.91
2023-05-21T06:26:49.973Z,101143.00
2023-05-21T06:27:41.810Z,101139.47
2023-05-21T06:28:43.752Z,101150.84
2023-05-21T06:29:35.509Z,101143.00
2023-05-21T06:30:27.175Z,101147.38
2023-05-21T06:31:22.273Z,101137.78
2023-05-21T06:32:13.959Z,101140.59
2023-05-21T06:33:08.935Z,101146.78
2023-05-21T06:34:00.975Z,101141.53
2023-05-21T06:34:55.390Z,101145.00
2023-05-21T06:35:50.157Z,101148.38
2023-05-21T06:36:44.001Z,101148.47
2023-05-21T06:37:36.290Z,101153.72
2023-05-21T06:38:27.797Z,101135.38
2023-05-21T06:39:19.324Z,101144.13
2023-05-21T06:40:11.260Z,101145.97
2023-05-21T06:41:06.406Z,101143.44
2023-05-21T06:42:13.833Z,101140.88
2023-05-21T06:43:16.020Z,101147.91
2023-05-21T06:44:39.879Z,101142.72
2023-05-21T06:45:46.729Z,101139.28
2023-05-21T06:46:57.073Z,101143.72
2023-05-21T06:47:50.007Z,101144.66
2023-05-21T06:48:44.071Z,101141.22
2023-05-21T06:49:35.581Z,101138.59
2023-05-21T06:50:27.138Z,101148.19
2023-05-21T06:51:18.658Z,101138.59
2023-05-21T06:52:12.405Z,101139.47
2023-05-21T06:53:06.731Z,101144.75
2023-05-21T06:53:58.275Z,101135.19
2023-05-21T06:54:55.939Z,101146.56
2023-05-21T06:55:56.576Z,101141.28
2023-05-21T06:57:00.025Z,101145.72
2023-05-21T06:57:51.587Z,101150.09
2023-05-21T06:58:43.012Z,101150.13
2023-05-21T06:59:34.757Z,101151.94
2023-05-21T07:00:26.333Z,101159.88
2023-05-21T07:01:18.371Z,101153.75
2023-05-21T07:02:10.637Z,101157.31
2023-05-21T07:03:02.346Z,101158.19
2023-05-21T07:03:55.980Z,101159.88
2023-05-21T07:04:47.663Z,101156.41
2023-05-21T07:05:39.518Z,101158.16
2023-05-21T07:06:32.052Z,101163.47
2023-05-21T07:07:23.533Z,101164.34
2023-05-21T07:08:15.034Z,101164.34
2023-05-21T07:09:06.662Z,101168.69
2023-05-21T07:09:58.198Z,101171.31
2023-05-21T07:10:50.766Z,101166.13
2023-05-21T07:11:43.254Z,101167.03
2023-05-21T07:12:35.720Z,101170.56
2023-05-21T07:13:30.349Z,101167.09
2023-05-21T07:14:26.480Z,101160.06
2023-05-21T07:15:19.180Z,101162.69
2023-05-21T07:16:12.124Z,101161.81
2023-05-21T07:17:05.321Z,101167.97
2023-05-21T07:18:01.048Z,101167.97
2023-05-21T07:18:52.814Z,101165.31
2023-05-21T07:19:44.641Z,101167.03
2023-05-21T07:20:36.081Z,101165.31
2023-05-21T07:21:31.038Z,101162.69
2023-05-21T07:22:23.012Z,101169.72
2023-05-21T07:23:14.521Z,101165.38
2023-05-21T07:24:06.293Z,101160.13
2023-05-21T07:24:57.718Z,101157.50
2023-05-21T07:25:49.285Z,101162.78
2023-05-21T07:26:41.379Z,101160.13
2023-05-21T07:27:32.930Z,101152.22
2023-05-21T07:28:24.826Z,101159.25
2023-05-21T07:29:17.594Z,101161.94
2023-05-21T07:30:10.558Z,101161.94
2023-05-21T07:31:02.291Z,101158.41
2023-05-21T07:32:00.261Z,101151.41
2023-05-21T07:32:52.000Z,101154.03
2023-05-21T07:33:44.411Z,101156.66
2023-05-21T07:34:37.206Z,101158.41
2023-05-21T07:35:29.303Z,101157.53
2023-05-21T07:36:21.418Z,101154.88
2023-05-21T07:37:13.879Z,101154.84
2023-05-21T07:38:06.050Z,101158.34
2023-05-21T07:38:57.939Z,101157.41
2023-05-21T07:39:49.985Z,101160.06
2023-05-21T07:40:41.990Z,101163.59
2023-05-21T07:41:34.826Z,101159.16
2023-05-21T07:42:31.052Z,101166.16
2023-05-21T07:43:25.690Z,101163.56
2023-05-21T07:44:17.217Z,101162.66
2023-05-21T07:45:10.811Z,101163.59
2023-05-21T07:46:06.396Z,101164.44
2023-05-21T07:46:59.591Z,101156.56
2023-05-21T07:47:51.151Z,101160.06
2023-05-21T07:48:44.060Z,101166.19
2023-05-21T07:49:40.564Z,101167.06
2023-05-21T07:50:32.365Z,101173.19
2023-05-21T07:51:25.683Z,101171.41
2023-05-21T07:52:17.204Z,101161.78
2023-05-21T07:53:08.930Z,101163.56
2023-05-21T07:54:00.542Z,101163.56
2023-05-21T07:54:57.594Z,101160.91
2023-05-21T07:55:52.270Z,101158.25
2023-05-21T07:56:49.110Z,101171.41
2023-05-21T07:58:06.288Z,101167.91
2023-05-21T07:59:00.868Z,101160.91
2023-05-21T07:59:52.421Z,101159.22
2023-05-21T08:00:47.696Z,101165.38
2023-05-21T08:01:41.033Z,101155.72
2023-05-21T08:02:32.574Z,101153.97
2023-05-21T08:03:26.488Z,101156.59
2023-05-21T08:04:18.683Z,101163.59
2023-05-21T08:05:10.984Z,101158.34
2023-05-21T08:06:03.262Z,101161.00
2023-05-21T08:06:54.862Z,101157.50
2023-05-21T08:07:48.760Z,101161.88
2023-05-21T08:08:40.779Z,101156.59
2023-05-21T08:09:32.843Z,101162.72
2023-05-21T08:10:24.466Z,101161.84
2023-05-21T08:11:17.208Z,101162.72
2023-05-21T08:12:08.834Z,101165.41
2023-05-21T08:13:00.363Z,101160.13
2023-05-21T08:13:52.251Z,101167.13
2023-05-21T08:14:43.706Z,101162.72
2023-05-21T08:15:37.142Z,101163.53
2023-05-21T08:16:29.199Z,101166.16
2023-05-21T08:17:20.958Z,101159.94
2023-05-21T08:18:12.589Z,101161.66
2023-05-21T08:19:06.686Z,101163.41
2023-05-21T08:19:58.209Z,101173.03
2023-05-21T08:20:50.407Z,101167.75
2023-05-21T08:21:45.103Z,101169.47
2023-05-21T08:22:36.842Z,101161.53
2023-05-21T08:23:28.346Z,101162.56
2023-05-21T08:24:21.903Z,101165.25
2023-05-21T08:25:13.884Z,101167.91
2023-05-21T08:26:06.960Z,101165.28
2023-05-21T08:27:02.957Z,101167.91
2023-05-21T08:27:56.308Z,101165.22
2023-05-21T08:28:48.063Z,101153.75
2023-05-21T08:29:39.568Z,101159.88
2023-05-21T08:30:31.656Z,101157.25
2023-05-21T08:31:23.408Z,101152.84
2023-05-21T08:32:16.459Z,101152.84
2023-05-21T08:33:08.368Z,101157.25
2023-05-21T08:33:59.971Z,101157.31
2023-05-21T08:35:04.288Z,101155.56
2023-05-21T08:36:16.434Z,101153.84
2023-05-21T08:37:23.793Z,101154.72
2023-05-21T08:38:31.244Z,101159.09
2023-05-21T08:39:37.247Z,101151.19
2023-05-21T08:40:30.392Z,101158.22
2023-05-21T08:41:23.370Z,101146.78
2023-05-21T08:42:40.985Z,101148.41
2023-05-21T08:43:34.553Z,101146.56
2023-05-21T08:44:33.466Z,101144.75
2023-05-21T08:45:27.999Z,101139.44
2023-05-21T08:46:24.796Z,101138.50
2023-05-21T08:47:23.748Z,101138.41
2023-05-21T08:48:17.426Z,101142.75
2023-05-21T08:49:13.765Z,101145.28
2023-05-21T08:50:10.228Z,101140.13
2023-05-21T08:51:02.077Z,101141.88
2023-05-21T08:51:59.525Z,101133.91
2023-05-21T08:52:51.577Z,101136.53
2023-05-21T08:53:44.728Z,101139.22
2023-05-21T08:54:40.612Z,101136.59
2023-05-21T08:55:32.585Z,101144.50
2023-05-21T08:56:24.698Z,101139.16
2023-05-21T08:57:25.543Z,101133.84
2023-05-21T08:58:22.313Z,101137.47
2023-05-21T08:59:18.217Z,101138.34
2023-05-21T09:00:11.744Z,101138.38
2023-05-21T09:01:04.838Z,101135.88
2023-05-21T09:01:58.183Z,101138.44
2023-05-21T09:02:56.972Z,101133.97
2023-05-21T09:03:57.134Z,101137.44
2023-05-21T09:04:57.351Z,101134.59
2023-05-21T09:05:49.752Z,101137.47
2023-05-21T09:06:41.247Z,101134.84
2023-05-21T09:07:43.156Z,101131.34
2023-05-21T09:09:00.172Z,101125.19
2023-05-21T09:10:13.253Z,101121.81
2023-05-21T09:11:05.663Z,101122.66
2023-05-21T09:12:02.695Z,101123.59
2023-05-21T09:12:54.912Z,101121.75
2023-05-21T09:13:49.359Z,101119.00
2023-05-21T09:14:49.252Z,101121.56
2023-05-21T09:15:47.741Z,101121.66
2023-05-21T09:16:42.127Z,101125.22
2023-05-21T09:17:33.969Z,101123.56
2023-05-21T09:18:36.766Z,101119.03
2023-05-21T09:20:12.014Z,101119.81
2023-05-21T09:21:24.590Z,101120.56
2023-05-21T09:22:17.381Z,101120.53
2023-05-21T09:23:16.692Z,101121.41
2023-05-21T09:24:10.907Z,101124.94
2023-05-21T09:25:11.835Z,101118.78
2023-05-21T09:26:12.594Z,101121.50
2023-05-21T09:27:07.157Z,101121.53
2023-05-21T09:27:59.647Z,101122.41
2023-05-21T09:28:56.487Z,101120.47
2023-05-21T09:29:48.053Z,101121.00
2023-05-21T09:30:53.864Z,101126.97
2023-05-21T09:31:45.830Z,101118.16
2023-05-21T09:32:40.315Z,101120.59
2023-05-21T09:33:32.073Z,101115.00
2023-05-21T09:34:25.109Z,101122.97
2023-05-21T09:35:18.807Z,101120.47
2023-05-21T09:36:11.744Z,101115.09
2023-05-21T09:37:06.451Z,101122.91
2023-05-21T09:38:02.144Z,101122.88
2023-05-21T09:38:54.833Z,101126.47
2023-05-21T09:39:51.411Z,101124.88
2023-05-21T09:40:49.140Z,101122.16
2023-05-21T09:41:43.974Z,101119.94
2023-05-21T09:42:35.872Z,101118.78
2023-05-21T09:43:27.814Z,101122.22
2023-05-21T09:44:22.225Z,101119.50
2023-05-21T09:45:27.281Z,101117.44
2023-05-21T09:46:26.323Z,101110.00
2023-05-21T09:47:20.375Z,101113.22
2023-05-21T09:48:12.213Z,101110.66
2023-05-21T09:49:03.784Z,101110.84
2023-05-21T09:49:58.632Z,101111.19
2023-05-21T09:50:50.084Z,101108.91
2023-05-21T09:51:43.818Z,101114.16
2023-05-21T09:52:40.787Z,101109.63
2023-05-21T09:53:33.840Z,101110.31
2023-05-21T09:54:34.924Z,101107.13
2023-05-21T09:55:29.025Z,101110.75
2023-05-21T09:56:23.608Z,101111.69
2023-05-21T09:57:16.009Z,101103.13
2023-05-21T09:58:08.387Z,101105.81
2023-05-21T09:59:04.328Z,101104.06
2023-05-21T09:59:56.298Z,101102.06
2023-05-21T10:00:48.227Z,101104.81
2023-05-21T10:01:39.999Z,101105.72
2023-05-21T10:02:36.317Z,101098.47
2023-05-21T10:03:29.740Z,101098.34
2023-05-21T10:04:24.263Z,101101.56
2023-05-21T10:05:17.071Z,101094.09
2023-05-21T10:06:10.070Z,101100.16
2023-05-21T10:07:02.428Z,101100.00
2023-05-21T10:08:00.935Z,101094.59
2023-05-21T10:08:56.744Z,101095.41
2023-05-21T10:09:49.288Z,101094.72
2023-05-21T10:10:44.143Z,101090.97
2023-05-21T10:11:36.762Z,101086.31
2023-05-21T10:12:31.532Z,101085.22
2023-05-21T10:13:23.462Z,101083.41
2023-05-21T10:14:19.927Z,101088.91
2023-05-21T10:15:17.017Z,101080.63